^^
Grace C. Lehan Memorial Weather Station Historical Data
Daily Summary for September 22, 2021 Units:  English    Metric   Both
Daily Weekly Monthly Yearly
  High: Low: Average:
Temperature: 48.1 °F 29.8 °F 36.8 °F
Dew Point: 33.5 °F 22.6 °F 27.6 °F
Humidity: 84% 52.2% 70%
Wind Speed: 9.1mph 0mph 2.1mph
Wind Gust: 22mph - -
Wind- - WNW
Pressure: 29.83 in 29.55 in -
Precipitation: 0.00 in    
 
 
Tabular Data for September 22, 2021
Time Temperature Dew Point Pressure Wind Wind Speed Wind Gust Humidity Rainfall Rate (Hourly) solar
00:04 33.1 °F 25.4 °F 29.56 in WSW 0.1 mph 2 mph 73% 0.00 in 0 W/m2
00:09 33.2 °F 25.6 °F 29.56 in WSW 0.2 mph 2 mph 73.1% 0.00 in 0 W/m2
00:14 33.4 °F 26 °F 29.56 in WSW 1 mph 3 mph 74% 0.00 in 0 W/m2
00:19 33.5 °F 26.1 °F 29.56 in WSW 0.8 mph 6 mph 74% 0.00 in 0 W/m2
00:24 33.6 °F 26.2 °F 29.56 in WSW 0.2 mph 6 mph 74% 0.00 in 0 W/m2
00:29 33.7 °F 26.3 °F 29.55 in Calm   6 mph 74% 0.00 in 0 W/m2
00:34 33.7 °F 26.3 °F 29.55 in WSW 0.4 mph 6 mph 74% 0.00 in 0 W/m2
00:39 33.7 °F 26.3 °F 29.55 in Calm   4 mph 74% 0.00 in 0 W/m2
00:44 33.6 °F 26.3 °F 29.55 in Calm   4 mph 74% 0.00 in 0 W/m2
00:49 33.6 °F 26.2 °F 29.55 in Calm   4 mph 74% 0.00 in 0 W/m2
00:54 33.5 °F 26.2 °F 29.55 in Calm   4 mph 74.4% 0.00 in 0 W/m2
00:59 33.4 °F 26.3 °F 29.55 in Calm   4 mph 75% 0.00 in 0 W/m2
01:04 33.3 °F 26.3 °F 29.55 in Calm   4 mph 75% 0.00 in 0 W/m2
01:09 33.2 °F 26.2 °F 29.55 in Calm     75% 0.00 in 0 W/m2
01:14 33.1 °F 26 °F 29.56 in Calm     75% 0.00 in 0 W/m2
01:19 32.9 °F 25.9 °F 29.56 in Calm     75% 0.00 in 0 W/m2
01:24 32.8 °F 25.8 °F 29.55 in Calm     75.2% 0.00 in 0 W/m2
01:29 32.7 °F 26 °F 29.55 in Calm     76% 0.00 in 0 W/m2
01:34 32.7 °F 26 °F 29.55 in Calm     76% 0.00 in 0 W/m2
01:39 32.7 °F 26 °F 29.56 in Calm     76% 0.00 in 0 W/m2
01:44 32.6 °F 25.9 °F 29.56 in Calm     76% 0.00 in 0 W/m2
01:49 32.4 °F 25.7 °F 29.56 in Calm     76.1% 0.00 in 0 W/m2
01:54 32.2 °F 25.8 °F 29.56 in Calm     77% 0.00 in 0 W/m2
01:59 32 °F 25.8 °F 29.56 in Calm     77.4% 0.00 in 0 W/m2
02:04 32 °F 25.9 °F 29.56 in Calm     78% 0.00 in 0 W/m2
02:09 31.9 °F 25.8 °F 29.56 in Calm     78% 0.00 in 0 W/m2
02:14 31.9 °F 26.2 °F 29.56 in Calm     79% 0.00 in 0 W/m2
02:19 32 °F 26.2 °F 29.56 in Calm     79% 0.00 in 0 W/m2
02:24 32 °F 26.2 °F 29.56 in Calm     79% 0.00 in 0 W/m2
02:29 32 °F 26.4 °F 29.56 in Calm     79.6% 0.00 in 0 W/m2
02:34 32.1 °F 26.6 °F 29.57 in Calm     80% 0.00 in 0 W/m2
02:39 32.2 °F 26.6 °F 29.57 in WSW 0.1 mph 2 mph 79.7% 0.00 in 0 W/m2
02:44 32.2 °F 26.5 °F 29.57 in WSW 0.1 mph 3 mph 79.3% 0.00 in 0 W/m2
02:49 32.2 °F 26.7 °F 29.57 in Calm   3 mph 80% 0.00 in 0 W/m2
02:54 32.2 °F 26.7 °F 29.57 in Calm   3 mph 80% 0.00 in 0 W/m2
02:59 32.2 °F 26.7 °F 29.56 in Calm   3 mph 80% 0.00 in 0 W/m2
03:04 32.1 °F 26.6 °F 29.56 in Calm   3 mph 80% 0.00 in 0 W/m2
03:09 32.1 °F 26.9 °F 29.56 in Calm     80.7% 0.00 in 0 W/m2
03:14 32.1 °F 26.9 °F 29.56 in Calm     81% 0.00 in 0 W/m2
03:19 32.1 °F 27 °F 29.56 in Calm     81% 0.00 in 0 W/m2
03:24 32.2 °F 27.1 °F 29.56 in Calm     81% 0.00 in 0 W/m2
03:29 32.3 °F 27.1 °F 29.56 in Calm     81% 0.00 in 0 W/m2
03:34 32.4 °F 27.1 °F 29.56 in Calm     80.7% 0.00 in 0 W/m2
03:39 32.4 °F 27 °F 29.56 in Calm     80.2% 0.00 in 0 W/m2
03:44 32.4 °F 26.9 °F 29.56 in Calm     80% 0.00 in 0 W/m2
03:49 32.4 °F 26.9 °F 29.56 in Calm     80% 0.00 in 0 W/m2
03:54 32.4 °F 26.9 °F 29.56 in Calm     80% 0.00 in 0 W/m2
03:59 32.3 °F 26.9 °F 29.56 in Calm     80% 0.00 in 0 W/m2
04:04 32.2 °F 26.7 °F 29.56 in Calm     80% 0.00 in 0 W/m2
04:09 32.1 °F 26.7 °F 29.56 in Calm     80% 0.00 in 0 W/m2
04:14 32.1 °F 26.8 °F 29.56 in Calm     80.4% 0.00 in 0 W/m2
04:19 32.2 °F 27 °F 29.56 in Calm     80.8% 0.00 in 0 W/m2
04:24 32.3 °F 26.8 °F 29.56 in Calm     80% 0.00 in 0 W/m2
04:29 32.3 °F 26.8 °F 29.56 in Calm     80% 0.00 in 0 W/m2
04:34 32.3 °F 26.8 °F 29.56 in Calm     80% 0.00 in 0 W/m2
04:39 32.2 °F 26.7 °F 29.56 in Calm     80% 0.00 in 0 W/m2
04:44 32.1 °F 26.6 °F 29.56 in Calm     80% 0.00 in 0 W/m2
04:49 32 °F 26.5 °F 29.56 in Calm     80% 0.00 in 0 W/m2
04:54 32 °F 26.5 °F 29.56 in Calm     80% 0.00 in 0 W/m2
04:59 31.8 °F 26.3 °F 29.56 in Calm     80% 0.00 in 0 W/m2
05:04 31.6 °F 26.2 °F 29.56 in Calm     80.3% 0.00 in 0 W/m2
05:09 31.5 °F 26.3 °F 29.56 in Calm     81% 0.00 in 0 W/m2
05:14 31.3 °F 26.2 °F 29.56 in Calm     81% 0.00 in 0 W/m2
05:19 31.2 °F 26 °F 29.56 in Calm     81% 0.00 in 0 W/m2
05:24 31.1 °F 25.9 °F 29.57 in Calm     81% 0.00 in 0 W/m2
05:29 30.9 °F 25.8 °F 29.57 in Calm     81.2% 0.00 in 0 W/m2
05:34 30.7 °F 25.8 °F 29.57 in Calm     81.8% 0.00 in 0 W/m2
05:39 30.5 °F 25.7 °F 29.57 in Calm     82% 0.00 in 0 W/m2
05:44 30.3 °F 25.7 °F 29.57 in Calm     82.8% 0.00 in 0 W/m2
05:49 30.1 °F 25.6 °F 29.57 in Calm     83.4% 0.00 in 0 W/m2
05:54 30.1 °F 25.9 °F 29.57 in Calm     84% 0.00 in 0 W/m2
05:59 30.1 °F 25.9 °F 29.57 in Calm     84% 0.00 in 0 W/m2
06:04 30.1 °F 25.8 °F 29.57 in Calm     84% 0.00 in 0 W/m2
06:09 30 °F 25.4 °F 29.57 in Calm     83% 0.00 in 0 W/m2
06:14 29.9 °F 25.6 °F 29.58 in Calm     83.8% 0.00 in 0 W/m2
06:19 29.8 °F 25.6 °F 29.57 in Calm     84% 0.00 in 0 W/m2
06:24 29.8 °F 25.6 °F 29.57 in Calm     84% 0.00 in 0 W/m2
06:29 29.8 °F 25.6 °F 29.57 in Calm     84% 0.00 in 0 W/m2
06:34 29.9 °F 25.7 °F 29.57 in Calm     84% 0.00 in 0 W/m2
06:39 30.1 °F 25.8 °F 29.57 in Calm     84% 0.00 in 0 W/m2
06:44 30.1 °F 25.8 °F 29.57 in Calm     83.8% 0.00 in 0 W/m2
06:49 30.2 °F 25.9 °F 29.57 in Calm     83.7% 0.00 in 0 W/m2
06:54 30.2 °F 25.7 °F 29.57 in Calm     83% 0.00 in 0 W/m2
06:59 30.2 °F 25.7 °F 29.58 in Calm     83% 0.00 in 0 W/m2
07:04 30.2 °F 25.8 °F 29.58 in WSW 0.1 mph 2 mph 83.4% 0.00 in 0 W/m2
07:09 30.2 °F 25.9 °F 29.58 in Calm   2 mph 83.8% 0.00 in 0 W/m2
07:14 30.3 °F 26 °F 29.58 in Calm   2 mph 83.7% 0.00 in 0 W/m2
07:19 30.5 °F 26.2 °F 29.58 in WSW 0.5 mph 6 mph 84% 0.00 in 5 W/m2
07:24 30.7 °F 26.5 °F 29.58 in WSW 0.2 mph 6 mph 84% 0.00 in 9 W/m2
07:29 31 °F 26.8 °F 29.58 in WSW 0.1 mph 6 mph 83.9% 0.00 in 16 W/m2
07:34 31.3 °F 26.7 °F 29.58 in Calm   6 mph 83% 0.00 in 21 W/m2
07:39 31.5 °F 26.9 °F 29.59 in Calm   1 mph 83% 0.00 in 26 W/m2
07:44 31.6 °F 27.1 °F 29.59 in Calm   1 mph 83% 0.00 in 26 W/m2
07:49 31.8 °F 27.2 °F 29.59 in Calm   1 mph 83% 0.00 in 28 W/m2
07:54 32 °F 27.4 °F 29.59 in Calm   1 mph 83% 0.00 in 25 W/m2
07:59 32.2 °F 27.5 °F 29.59 in Calm   1 mph 82.6% 0.00 in 28 W/m2
08:00 32.3 °F 27.4 °F 29.59 in Calm   1 mph 82% 0.00 in 28 W/m2
08:09 32.5 °F 27.7 °F 29.60 in WSW 0.2 mph 4 mph 82% 0.00 in 37 W/m2
08:14 32.8 °F 27.9 °F 29.60 in Calm   4 mph 81.8% 0.00 in 46 W/m2
08:19 33.1 °F 28 °F 29.60 in WSW 0.5 mph 5 mph 81.1% 0.00 in 46 W/m2
08:24 33.5 °F 28.3 °F 29.60 in WSW 1 mph 6 mph 81% 0.00 in 84 W/m2
08:29 34.1 °F 28.9 °F 29.60 in West 1.2 mph 6 mph 81% 0.00 in 158 W/m2
08:34 34.9 °F 29.6 °F 29.61 in West 0.9 mph 6 mph 80.7% 0.00 in 121 W/m2
08:39 35.8 °F 29.8 °F 29.61 in West 0.6 mph 5 mph 78.7% 0.00 in 56 W/m2
08:44 36.2 °F 29.5 °F 29.61 in WSW 0.7 mph 5 mph 76.5% 0.00 in 79 W/m2
08:49 36.5 °F 29.4 °F 29.62 in WNW 1.1 mph 6 mph 75.1% 0.00 in 171 W/m2
08:54 36.7 °F 29.6 °F 29.62 in West 0.2 mph 6 mph 75% 0.00 in 171 W/m2
08:59 37.1 °F 29.5 °F 29.62 in West 0.2 mph 6 mph 74% 0.00 in 93 W/m2
09:04 37.3 °F 29.6 °F 29.62 in Calm   6 mph 73.5% 0.00 in 188 W/m2
09:09 37.6 °F 29.9 °F 29.62 in Calm   1 mph 73.7% 0.00 in 220 W/m2
09:14 37.8 °F 30 °F 29.62 in WSW 0.2 mph 4 mph 73% 0.00 in 239 W/m2
09:19 38 °F 30 °F 29.63 in WSW 0.2 mph 4 mph 72.7% 0.00 in 239 W/m2
09:24 38.4 °F 30.6 °F 29.63 in Calm   4 mph 73.2% 0.00 in 281 W/m2
09:29 39 °F 31 °F 29.63 in Calm   4 mph 72.8% 0.00 in 197 W/m2
09:34 39.5 °F 30.8 °F 29.63 in WSW 0.8 mph 5 mph 70.9% 0.00 in 299 W/m2
09:39 40 °F 30.9 °F 29.63 in WSW 1.3 mph 8 mph 69.8% 0.00 in 244 W/m2
09:44 40.4 °F 30.9 °F 29.63 in WSW 0.1 mph 8 mph 68.5% 0.00 in 253 W/m2
09:49 40.8 °F 31.2 °F 29.63 in WSW 0.5 mph 8 mph 68.3% 0.00 in 304 W/m2
09:54 41.4 °F 31.5 °F 29.63 in WSW 0.1 mph 8 mph 67.6% 0.00 in 294 W/m2
09:59 41.9 °F 31.6 °F 29.63 in WSW 0.5 mph 8 mph 66.4% 0.00 in 178 W/m2
10:04 42.2 °F 31.3 °F 29.63 in WSW 0.1 mph 8 mph 65% 0.00 in 95 W/m2
10:09 42.2 °F 30.9 °F 29.63 in WNW 1.1 mph 6 mph 64% 0.00 in 200 W/m2
10:14 42.2 °F 31 °F 29.63 in WNW 0.4 mph 6 mph 64.3% 0.00 in 232 W/m2
10:19 42.3 °F 31.2 °F 29.63 in West 0.2 mph 6 mph 64.6% 0.00 in 244 W/m2
10:24 42.4 °F 31.5 °F 29.62 in West 0.7 mph 7 mph 65% 0.00 in 287 W/m2
10:29 42.9 °F 31.7 °F 29.62 in WNW 2.2 mph 14 mph 64.3% 0.00 in 311 W/m2
10:34 43.6 °F 31.6 °F 29.62 in NW 4.6 mph 14 mph 62.5% 0.00 in 369 W/m2
10:39 44.3 °F 31.9 °F 29.62 in WNW 2.9 mph 10 mph 61.3% 0.00 in 424 W/m2
10:44 45 °F 32.4 °F 29.62 in WSW 1.5 mph 10 mph 60.8% 0.00 in 490 W/m2
10:49 45.9 °F 32.2 °F 29.62 in West 2.1 mph 10 mph 58.5% 0.00 in 501 W/m2
10:54 46.5 °F 33 °F 29.62 in Calm   10 mph 59% 0.00 in 513 W/m2
10:59 47.4 °F 33.5 °F 29.62 in West 0.3 mph 10 mph 58.2% 0.00 in 446 W/m2
11:04 48 °F 32.8 °F 29.62 in West 2 mph 10 mph 55.5% 0.00 in 446 W/m2
11:09 48.1 °F 31.6 °F 29.62 in West 3.9 mph 15 mph 52.7% 0.00 in 397 W/m2
11:14 47.6 °F 31.2 °F 29.62 in West 4.1 mph 15 mph 52.7% 0.00 in 225 W/m2
11:19 46.9 °F 30.3 °F 29.62 in WNW 7.8 mph 18 mph 52.2% 0.00 in 169 W/m2
11:24 45.9 °F 29.9 °F 29.62 in WNW 6.7 mph 18 mph 53.2% 0.00 in 264 W/m2
11:29 45.3 °F 30.1 °F 29.62 in West 4.7 mph 18 mph 55% 0.00 in 209 W/m2
11:34 45.1 °F 29.9 °F 29.62 in West 5 mph 18 mph 55% 0.00 in 107 W/m2
11:39 44.7 °F 29.6 °F 29.61 in West 3.8 mph 14 mph 55.2% 0.00 in 79 W/m2
11:44 44.2 °F 29.2 °F 29.62 in WNW 4.2 mph 14 mph 55.5% 0.00 in 204 W/m2
11:49 43.6 °F 29 °F 29.62 in WNW 7.2 mph 14 mph 56% 0.00 in 158 W/m2
11:54 43.2 °F 28.4 °F 29.61 in WNW 7.7 mph 20 mph 55.5% 0.00 in 171 W/m2
11:59 43 °F 28.4 °F 29.61 in WNW 6.6 mph 20 mph 56% 0.00 in 232 W/m2
12:00 43 °F 28.4 °F 29.61 in WNW 7 mph 20 mph 56% 0.00 in 128 W/m2
12:09 43 °F 28.1 °F 29.62 in WNW 6.8 mph 14 mph 55.3% 0.00 in 91 W/m2
12:14 42.9 °F 28.1 °F 29.61 in WNW 4 mph 14 mph 55.6% 0.00 in 98 W/m2
12:19 42.8 °F 28.4 °F 29.61 in WNW 6.8 mph 15 mph 56.3% 0.00 in 98 W/m2
12:24 42.8 °F 28.5 °F 29.61 in WNW 2.9 mph 15 mph 56.7% 0.00 in 167 W/m2
12:29 42.9 °F 28.8 °F 29.61 in WNW 2.3 mph 15 mph 57% 0.00 in 193 W/m2
12:34 43.1 °F 28.7 °F 29.61 in WNW 6.3 mph 16 mph 56.3% 0.00 in 193 W/m2
12:39 43.3 °F 28.4 °F 29.61 in NW 5.5 mph 16 mph 55.4% 0.00 in 134 W/m2
12:44 43.3 °F 28.5 °F 29.61 in NW 3.7 mph 16 mph 55.7% 0.00 in 149 W/m2
12:49 43.3 °F 28.7 °F 29.61 in WNW 4 mph 17 mph 56% 0.00 in 153 W/m2
12:54 43.4 °F 28.8 °F 29.61 in West 5.9 mph 17 mph 56% 0.00 in 130 W/m2
12:59 43.3 °F 28.5 °F 29.62 in West 1.4 mph 17 mph 55.7% 0.00 in 127 W/m2
13:04 43.2 °F 28.6 °F 29.62 in West 5 mph 17 mph 56% 0.00 in 127 W/m2
13:09 43.1 °F 28.1 °F 29.62 in West 4.9 mph 15 mph 55% 0.00 in 77 W/m2
13:14 42.9 °F 27.9 °F 29.62 in West 7.8 mph 19 mph 55.2% 0.00 in 49 W/m2
13:19 42.6 °F 27.8 °F 29.62 in West 3 mph 19 mph 55.6% 0.00 in 63 W/m2
13:24 42.3 °F 27.8 °F 29.62 in WNW 5.2 mph 19 mph 56.1% 0.00 in 70 W/m2
13:29 42.1 °F 28 °F 29.62 in West 4.7 mph 19 mph 57% 0.00 in 69 W/m2
13:34 41.9 °F 27.8 °F 29.63 in WNW 4.9 mph 19 mph 57% 0.00 in 72 W/m2
13:39 41.9 °F 27.9 °F 29.63 in WNW 1.6 mph 14 mph 57.3% 0.00 in 88 W/m2
13:44 41.9 °F 28 °F 29.62 in West 3.3 mph 14 mph 57.5% 0.00 in 107 W/m2
13:49 41.9 °F 28.2 °F 29.62 in West 0.9 mph 14 mph 57.9% 0.00 in 111 W/m2
13:54 42 °F 27.9 °F 29.63 in West 6.1 mph 14 mph 57.1% 0.00 in 141 W/m2
13:59 42.1 °F 27.8 °F 29.63 in WNW 3.1 mph 14 mph 56.5% 0.00 in 144 W/m2
14:04 42.3 °F 27.8 °F 29.63 in West 6.8 mph 20 mph 56.2% 0.00 in 146 W/m2
14:09 42.4 °F 27.4 °F 29.63 in WNW 5.4 mph 20 mph 55% 0.00 in 144 W/m2
14:14 42.5 °F 27.5 °F 29.64 in WNW 4.8 mph 20 mph 55% 0.00 in 142 W/m2
14:19 42.7 °F 27.6 °F 29.63 in West 4.7 mph 20 mph 55% 0.00 in 139 W/m2
14:24 42.8 °F 27.7 °F 29.64 in West 4.1 mph 20 mph 55% 0.00 in 125 W/m2
14:29 42.8 °F 27.8 °F 29.64 in WNW 2.1 mph 20 mph 55.1% 0.00 in 121 W/m2
14:34 42.9 °F 28.2 °F 29.64 in WSW 2.5 mph 20 mph 55.8% 0.00 in 123 W/m2
14:39 42.9 °F 28.2 °F 29.64 in West 1 mph 11 mph 55.7% 0.00 in 127 W/m2
14:44 43 °F 28.3 °F 29.64 in WSW 3.1 mph 12 mph 55.8% 0.00 in 135 W/m2
14:49 43.1 °F 28.3 °F 29.64 in West 2.3 mph 12 mph 55.5% 0.00 in 134 W/m2
14:54 43.1 °F 28.4 °F 29.64 in WSW 0.8 mph 12 mph 55.8% 0.00 in 114 W/m2
14:59 43.2 °F 28.5 °F 29.64 in WNW 2.5 mph 12 mph 55.9% 0.00 in 86 W/m2
15:04 43.2 °F 28.1 °F 29.65 in WNW 5.4 mph 12 mph 55% 0.00 in 76 W/m2
15:09 42.9 °F 27.9 °F 29.65 in WNW 3.8 mph 13 mph 55% 0.00 in 76 W/m2
15:14 42.8 °F 27.9 °F 29.65 in WNW 5.1 mph 14 mph 55.3% 0.00 in 81 W/m2
15:19 42.6 °F 28 °F 29.65 in WNW 3.5 mph 14 mph 56% 0.00 in 84 W/m2
15:24 42.5 °F 27.9 °F 29.65 in WNW 2.6 mph 14 mph 56% 0.00 in 83 W/m2
15:29 42.5 °F 27.9 °F 29.65 in WNW 9.1 mph 17 mph 56% 0.00 in 69 W/m2
15:34 42.3 °F 27.8 °F 29.65 in WNW 6.6 mph 17 mph 56.1% 0.00 in 62 W/m2
15:39 42.2 °F 28.1 °F 29.66 in WNW 6.9 mph 15 mph 57% 0.00 in 62 W/m2
15:44 42.1 °F 28.2 °F 29.66 in WNW 5.1 mph 22 mph 57.5% 0.00 in 62 W/m2
15:49 42.1 °F 28.2 °F 29.66 in WNW 5.7 mph 22 mph 57.6% 0.00 in 56 W/m2
15:54 42 °F 28.3 °F 29.66 in WNW 6.4 mph 22 mph 58% 0.00 in 60 W/m2
15:59 41.9 °F 28.4 °F 29.67 in WNW 6.7 mph 22 mph 58.4% 0.00 in 54 W/m2
16:04 41.8 °F 28.5 °F 29.67 in NW 6.1 mph 12 mph 59% 0.00 in 47 W/m2
16:09 41.8 °F 28.8 °F 29.67 in WNW 4.7 mph 17 mph 59.6% 0.00 in 39 W/m2
16:14 41.7 °F 28.9 °F 29.67 in WNW 6 mph 17 mph 60% 0.00 in 28 W/m2
16:19 41.6 °F 28.7 °F 29.68 in WNW 7 mph 17 mph 60% 0.00 in 21 W/m2
16:24 41.4 °F 28.7 °F 29.68 in WNW 4.9 mph 17 mph 60.3% 0.00 in 18 W/m2
16:29 41.2 °F 28.8 °F 29.68 in West 2 mph 17 mph 61% 0.00 in 14 W/m2
16:34 41 °F 28.8 °F 29.68 in WNW 3.5 mph 17 mph 61.5% 0.00 in 11 W/m2
16:39 40.7 °F 28.7 °F 29.69 in WNW 5.9 mph 11 mph 62% 0.00 in 9 W/m2
16:44 40.4 °F 28.8 °F 29.69 in WNW 3.8 mph 11 mph 62.9% 0.00 in 7 W/m2
16:49 40.2 °F 28.9 °F 29.69 in WNW 1.4 mph 11 mph 63.9% 0.00 in 5 W/m2
16:54 39.9 °F 29.1 °F 29.69 in NW 2.5 mph 11 mph 65% 0.00 in 0 W/m2
16:59 39.6 °F 29.2 °F 29.70 in WNW 3.1 mph 11 mph 66% 0.00 in 0 W/m2
17:04 39.2 °F 29.2 °F 29.70 in WNW 4 mph 11 mph 67% 0.00 in 0 W/m2
17:09 39 °F 29 °F 29.70 in West 1.6 mph 9 mph 67% 0.00 in 0 W/m2
17:14 38.7 °F 29.1 °F 29.70 in WNW 2.1 mph 9 mph 67.9% 0.00 in 0 W/m2
17:19 38.5 °F 29 °F 29.70 in West 2.6 mph 9 mph 68.2% 0.00 in 0 W/m2
17:24 38.3 °F 29 °F 29.70 in West 2.3 mph 9 mph 69% 0.00 in 0 W/m2
17:29 38.1 °F 28.9 °F 29.70 in West 2.1 mph 9 mph 69% 0.00 in 0 W/m2
17:34 37.9 °F 29 °F 29.71 in West 2.6 mph 9 mph 69.8% 0.00 in 0 W/m2
17:39 37.8 °F 28.9 °F 29.71 in West 1.6 mph 12 mph 70% 0.00 in 0 W/m2
17:44 37.7 °F 28.8 °F 29.71 in WNW 3.1 mph 12 mph 70% 0.00 in 0 W/m2
17:49 37.6 °F 28.7 °F 29.72 in WNW 3.5 mph 12 mph 70% 0.00 in 0 W/m2
17:54 37.5 °F 28.6 °F 29.72 in WNW 5.3 mph 12 mph 70% 0.00 in 0 W/m2
17:59 37.5 °F 28.6 °F 29.72 in WNW 7.7 mph 17 mph 70.1% 0.00 in 0 W/m2
18:04 37.6 °F 29.1 °F 29.72 in WNW 6.2 mph 17 mph 71% 0.00 in 0 W/m2
18:09 37.6 °F 29.1 °F 29.72 in NW 3.6 mph 14 mph 71% 0.00 in 0 W/m2
18:14 37.6 °F 29 °F 29.73 in WNW 2.8 mph 14 mph 71% 0.00 in 0 W/m2
18:19 37.4 °F 29 °F 29.73 in WNW 3.7 mph 14 mph 71.5% 0.00 in 0 W/m2
18:24 37.3 °F 29.1 °F 29.74 in NW 2.4 mph 14 mph 72% 0.00 in 0 W/m2
18:29 37.2 °F 29.1 °F 29.74 in NW 1.1 mph 14 mph 72.2% 0.00 in 0 W/m2
18:34 37.1 °F 29.2 °F 29.74 in NNW 2 mph 14 mph 73% 0.00 in 0 W/m2
18:39 36.9 °F 29.2 °F 29.74 in NNW 1.1 mph 9 mph 73.4% 0.00 in 0 W/m2
18:44 36.8 °F 29.3 °F 29.74 in NNW 0.6 mph 9 mph 74% 0.00 in 0 W/m2
18:49 36.6 °F 29.2 °F 29.75 in NNW 0.2 mph 9 mph 74% 0.00 in 0 W/m2
18:54 36.5 °F 29 °F 29.75 in Calm   9 mph 74% 0.00 in 0 W/m2
18:59 36.4 °F 29.2 °F 29.75 in Calm   9 mph 74.7% 0.00 in 0 W/m2
19:04 36.3 °F 29.1 °F 29.75 in Calm   9 mph 75% 0.00 in 0 W/m2
19:09 36.2 °F 29.2 °F 29.76 in Calm     75.4% 0.00 in 0 W/m2
19:11 36.1 °F 29.3 °F 29.76 in Calm     76% 0.00 in 0 W/m2
19:30 36 °F 29.8 °F 29.76 in Calm   9 mph 78% 0.00 in 0 W/m2
20:09 36.8 °F 29.8 °F 29.78 in NW 2.5 mph 9 mph 75.6% 0.00 in 0 W/m2
20:14 36.7 °F 29.5 °F 29.78 in NW 3.9 mph 12 mph 75% 0.00 in 0 W/m2
20:19 36.7 °F 29.5 °F 29.78 in NW 4.9 mph 17 mph 75% 0.00 in 0 W/m2
20:24 36.6 °F 29.5 °F 29.78 in WNW 5 mph 17 mph 75% 0.00 in 0 W/m2
20:29 36.6 °F 29.2 °F 29.78 in NW 3.5 mph 17 mph 74.4% 0.00 in 0 W/m2
20:34 36.6 °F 29.1 °F 29.79 in WNW 4.5 mph 17 mph 74% 0.00 in 0 W/m2
20:39 36.5 °F 28.7 °F 29.79 in WNW 4.6 mph 16 mph 73.1% 0.00 in 0 W/m2
20:44 36.5 °F 28.5 °F 29.79 in WNW 7 mph 18 mph 72.4% 0.00 in 0 W/m2
20:49 36.4 °F 28.2 °F 29.79 in NW 2.8 mph 18 mph 71.8% 0.00 in 0 W/m2
20:54 36.4 °F 27.9 °F 29.80 in WNW 4.6 mph 18 mph 70.9% 0.00 in 0 W/m2
20:59 36.3 °F 27.5 °F 29.80 in NW 1.4 mph 18 mph 70% 0.00 in 0 W/m2
21:04 36.3 °F 27.4 °F 29.80 in NW 4.3 mph 18 mph 70% 0.00 in 0 W/m2
21:09 36.2 °F 27 °F 29.80 in NW 5.4 mph 17 mph 68.9% 0.00 in 0 W/m2
21:14 36.1 °F 26.6 °F 29.80 in NW 2.4 mph 17 mph 68% 0.00 in 0 W/m2
21:19 36 °F 26.5 °F 29.80 in NW 4 mph 17 mph 68% 0.00 in 0 W/m2
21:24 35.9 °F 26 °F 29.80 in NNW 4 mph 17 mph 67% 0.00 in 0 W/m2
21:29 35.7 °F 25.8 °F 29.80 in NW 0.9 mph 17 mph 67% 0.00 in 0 W/m2
21:34 35.6 °F 25.7 °F 29.80 in NW 3.4 mph 17 mph 67% 0.00 in 0 W/m2
21:39 35.5 °F 25.6 °F 29.80 in North 1.4 mph 9 mph 67% 0.00 in 0 W/m2
21:44 35.5 °F 25.7 °F 29.81 in North 0.5 mph 9 mph 67.1% 0.00 in 0 W/m2
21:49 35.4 °F 25.7 °F 29.81 in NW 1.9 mph 9 mph 67.2% 0.00 in 0 W/m2
21:54 35.5 °F 25.6 °F 29.81 in NNW 1.2 mph 9 mph 67% 0.00 in 0 W/m2
21:59 35.5 °F 25.4 °F 29.81 in NNW 1.9 mph 9 mph 66.4% 0.00 in 0 W/m2
22:04 35.5 °F 25.3 °F 29.81 in NW 1.9 mph 9 mph 66.1% 0.00 in 0 W/m2
22:09 35.5 °F 25.3 °F 29.81 in NW 2.2 mph 7 mph 66% 0.00 in 0 W/m2
22:14 35.5 °F 25.3 °F 29.81 in NW 3.3 mph 8 mph 66% 0.00 in 0 W/m2
22:19 35.5 °F 25.3 °F 29.82 in WNW 3.6 mph 11 mph 66% 0.00 in 0 W/m2
22:24 35.5 °F 25.2 °F 29.82 in NW 3.4 mph 11 mph 65.7% 0.00 in 0 W/m2
22:29 35.5 °F 25.1 °F 29.82 in NW 3.2 mph 11 mph 65.6% 0.00 in 0 W/m2
22:34 35.5 °F 24.9 °F 29.82 in NW 2.2 mph 11 mph 65% 0.00 in 0 W/m2
22:39 35.4 °F 24.8 °F 29.82 in NW 1.1 mph 7 mph 65% 0.00 in 0 W/m2
22:44 35.3 °F 24.8 °F 29.82 in WNW 2.8 mph 9 mph 65.2% 0.00 in 0 W/m2
22:49 35.3 °F 24.9 °F 29.82 in NW 0.6 mph 9 mph 65.5% 0.00 in 0 W/m2
22:54 35.2 °F 24.7 °F 29.82 in NW 3 mph 13 mph 65% 0.00 in 0 W/m2
22:58 35.2 °F 24.5 °F 29.83 in NW 5.1 mph 13 mph 64.8% 0.00 in 0 W/m2
23:04 35.2 °F 24.3 °F 29.82 in WNW 3.8 mph 6 mph 64% 0.00 in 0 W/m2
23:09 35.2 °F 24.2 °F 29.82 in WNW 3.5 mph 9 mph 64% 0.00 in 0 W/m2
23:14 35.1 °F 24.2 °F 29.83 in WNW 2.8 mph 10 mph 64% 0.00 in 0 W/m2
23:19 35.1 °F 23.9 °F 29.83 in WNW 5.5 mph 11 mph 63.3% 0.00 in 0 W/m2
23:24 35 °F 23.7 °F 29.83 in WNW 4.7 mph 11 mph 63% 0.00 in 0 W/m2
23:29 35 °F 23.8 °F 29.83 in WNW 6.3 mph 15 mph 63.4% 0.00 in 0 W/m2
23:34 34.9 °F 23.6 °F 29.82 in NW 5 mph 15 mph 63% 0.00 in 0 W/m2
23:39 34.9 °F 23.6 °F 29.83 in WNW 8.7 mph 14 mph 63% 0.00 in 0 W/m2
23:44 34.8 °F 23.5 °F 29.83 in WNW 8.2 mph 15 mph 63% 0.00 in 0 W/m2
23:49 34.8 °F 23.1 °F 29.83 in WNW 6.6 mph 17 mph 62% 0.00 in 0 W/m2
23:54 34.8 °F 23 °F 29.83 in WNW 7.9 mph 17 mph 61.9% 0.00 in 0 W/m2
23:59 34.7 °F 22.6 °F 29.82 in WNW 4.8 mph 17 mph 61% 0.00 in 0 W/m2
Hartford County Weather
Compliments of Weather Underground - 4 mb